sensor_id;sensor_type;location;lat;lon;timestamp;P1;durP1;ratioP1;P2;durP2;ratioP2
18738;SDS011;9498;51.862;19.460;2022-10-17T00:00:32;54.37;;;24.60;;
18738;SDS011;9498;51.862;19.460;2022-10-17T00:02:59;56.53;;;26.73;;
18738;SDS011;9498;51.862;19.460;2022-10-17T00:05:28;58.10;;;27.13;;
18738;SDS011;9498;51.862;19.460;2022-10-17T00:07:55;51.90;;;25.53;;
18738;SDS011;9498;51.862;19.460;2022-10-17T00:10:23;51.87;;;24.93;;
18738;SDS011;9498;51.862;19.460;2022-10-17T00:12:50;57.47;;;26.27;;
18738;SDS011;9498;51.862;19.460;2022-10-17T00:15:18;49.67;;;25.53;;
18738;SDS011;9498;51.862;19.460;2022-10-17T00:17:46;57.07;;;25.07;;
18738;SDS011;9498;51.862;19.460;2022-10-17T00:20:13;55.70;;;25.60;;
18738;SDS011;9498;51.862;19.460;2022-10-17T00:22:42;56.87;;;25.63;;
18738;SDS011;9498;51.862;19.460;2022-10-17T00:25:09;52.87;;;24.70;;
18738;SDS011;9498;51.862;19.460;2022-10-17T00:27:37;57.97;;;28.30;;
18738;SDS011;9498;51.862;19.460;2022-10-17T00:30:05;51.53;;;25.27;;
18738;SDS011;9498;51.862;19.460;2022-10-17T00:32:32;54.27;;;26.90;;
18738;SDS011;9498;51.862;19.460;2022-10-17T00:35:00;51.30;;;27.00;;
18738;SDS011;9498;51.862;19.460;2022-10-17T00:37:28;54.20;;;25.37;;
18738;SDS011;9498;51.862;19.460;2022-10-17T00:39:57;57.07;;;26.97;;
18738;SDS011;9498;51.862;19.460;2022-10-17T00:42:24;51.00;;;24.87;;
18738;SDS011;9498;51.862;19.460;2022-10-17T00:47:40;55.97;;;25.10;;
18738;SDS011;9498;51.862;19.460;2022-10-17T00:50:08;52.57;;;25.40;;
18738;SDS011;9498;51.862;19.460;2022-10-17T00:52:37;53.40;;;26.50;;
18738;SDS011;9498;51.862;19.460;2022-10-17T00:55:07;57.87;;;28.20;;
18738;SDS011;9498;51.862;19.460;2022-10-17T00:57:35;59.40;;;26.27;;
18738;SDS011;9498;51.862;19.460;2022-10-17T01:00:04;55.77;;;24.53;;
18738;SDS011;9498;51.862;19.460;2022-10-17T01:02:32;51.60;;;25.00;;
18738;SDS011;9498;51.862;19.460;2022-10-17T01:04:59;52.80;;;25.13;;
18738;SDS011;9498;51.862;19.460;2022-10-17T01:07:27;54.63;;;24.70;;
18738;SDS011;9498;51.862;19.460;2022-10-17T01:09:55;49.40;;;23.97;;
18738;SDS011;9498;51.862;19.460;2022-10-17T01:12:24;52.40;;;24.33;;
18738;SDS011;9498;51.862;19.460;2022-10-17T01:14:57;46.07;;;24.70;;
18738;SDS011;9498;51.862;19.460;2022-10-17T01:17:27;50.50;;;25.00;;
18738;SDS011;9498;51.862;19.460;2022-10-17T01:20:08;48.70;;;23.93;;
18738;SDS011;9498;51.862;19.460;2022-10-17T01:22:39;46.77;;;22.70;;
18738;SDS011;9498;51.862;19.460;2022-10-17T01:25:19;52.03;;;24.37;;
18738;SDS011;9498;51.862;19.460;2022-10-17T01:27:58;47.47;;;23.83;;
18738;SDS011;9498;51.862;19.460;2022-10-17T01:30:28;48.07;;;22.97;;
18738;SDS011;9498;51.862;19.460;2022-10-17T01:33:01;54.50;;;24.97;;
18738;SDS011;9498;51.862;19.460;2022-10-17T01:35:31;48.53;;;23.23;;
18738;SDS011;9498;51.862;19.460;2022-10-17T01:38:01;50.93;;;24.17;;
18738;SDS011;9498;51.862;19.460;2022-10-17T01:40:33;55.03;;;25.47;;
18738;SDS011;9498;51.862;19.460;2022-10-17T01:43:02;47.37;;;24.33;;
18738;SDS011;9498;51.862;19.460;2022-10-17T01:45:31;50.27;;;24.03;;
18738;SDS011;9498;51.862;19.460;2022-10-17T01:48:02;55.97;;;24.83;;
18738;SDS011;9498;51.862;19.460;2022-10-17T01:50:32;54.13;;;26.30;;
18738;SDS011;9498;51.862;19.460;2022-10-17T01:53:01;58.27;;;25.67;;
18738;SDS011;9498;51.862;19.460;2022-10-17T01:55:30;68.47;;;26.70;;
18738;SDS011;9498;51.862;19.460;2022-10-17T01:58:00;52.27;;;26.33;;
18738;SDS011;9498;51.862;19.460;2022-10-17T02:00:28;57.90;;;27.23;;
18738;SDS011;9498;51.862;19.460;2022-10-17T02:02:57;58.97;;;27.67;;
18738;SDS011;9498;51.862;19.460;2022-10-17T02:05:29;56.57;;;27.50;;
18738;SDS011;9498;51.862;19.460;2022-10-17T02:07:57;57.97;;;25.20;;
18738;SDS011;9498;51.862;19.460;2022-10-17T02:10:28;55.17;;;26.83;;
18738;SDS011;9498;51.862;19.460;2022-10-17T02:12:58;57.40;;;26.47;;
18738;SDS011;9498;51.862;19.460;2022-10-17T02:15:32;59.90;;;26.80;;
18738;SDS011;9498;51.862;19.460;2022-10-17T02:18:09;57.23;;;26.80;;
18738;SDS011;9498;51.862;19.460;2022-10-17T02:20:39;58.40;;;26.53;;
18738;SDS011;9498;51.862;19.460;2022-10-17T02:23:15;59.70;;;26.60;;
18738;SDS011;9498;51.862;19.460;2022-10-17T02:25:47;63.00;;;26.50;;
18738;SDS011;9498;51.862;19.460;2022-10-17T02:28:18;55.83;;;26.23;;
18738;SDS011;9498;51.862;19.460;2022-10-17T02:30:48;59.57;;;28.80;;
18738;SDS011;9498;51.862;19.460;2022-10-17T02:33:17;65.80;;;29.70;;
18738;SDS011;9498;51.862;19.460;2022-10-17T02:35:50;69.07;;;29.83;;
18738;SDS011;9498;51.862;19.460;2022-10-17T02:38:19;59.40;;;27.80;;
18738;SDS011;9498;51.862;19.460;2022-10-17T02:40:47;73.33;;;29.87;;
18738;SDS011;9498;51.862;19.460;2022-10-17T02:43:16;62.93;;;29.20;;
18738;SDS011;9498;51.862;19.460;2022-10-17T02:45:43;70.43;;;29.20;;
18738;SDS011;9498;51.862;19.460;2022-10-17T02:48:13;69.13;;;30.30;;
18738;SDS011;9498;51.862;19.460;2022-10-17T02:50:44;66.23;;;29.40;;
18738;SDS011;9498;51.862;19.460;2022-10-17T02:53:16;64.47;;;30.23;;
18738;SDS011;9498;51.862;19.460;2022-10-17T02:55:47;65.03;;;28.27;;
18738;SDS011;9498;51.862;19.460;2022-10-17T02:58:17;63.57;;;29.27;;
18738;SDS011;9498;51.862;19.460;2022-10-17T03:00:45;63.47;;;29.17;;
18738;SDS011;9498;51.862;19.460;2022-10-17T03:03:19;65.77;;;29.03;;
18738;SDS011;9498;51.862;19.460;2022-10-17T03:05:47;59.77;;;28.87;;
18738;SDS011;9498;51.862;19.460;2022-10-17T03:08:16;60.70;;;27.97;;
18738;SDS011;9498;51.862;19.460;2022-10-17T03:10:43;57.43;;;26.67;;
18738;SDS011;9498;51.862;19.460;2022-10-17T03:13:10;56.20;;;26.63;;
18738;SDS011;9498;51.862;19.460;2022-10-17T03:15:37;59.83;;;28.50;;
18738;SDS011;9498;51.862;19.460;2022-10-17T03:18:04;60.50;;;27.37;;
18738;SDS011;9498;51.862;19.460;2022-10-17T03:20:32;63.37;;;28.23;;
18738;SDS011;9498;51.862;19.460;2022-10-17T03:22:59;55.53;;;27.77;;
18738;SDS011;9498;51.862;19.460;2022-10-17T03:25:28;63.67;;;26.43;;
18738;SDS011;9498;51.862;19.460;2022-10-17T03:27:56;61.37;;;27.27;;
18738;SDS011;9498;51.862;19.460;2022-10-17T03:30:24;57.00;;;27.10;;
18738;SDS011;9498;51.862;19.460;2022-10-17T03:32:51;65.70;;;28.07;;
18738;SDS011;9498;51.862;19.460;2022-10-17T03:35:18;65.40;;;27.53;;
18738;SDS011;9498;51.862;19.460;2022-10-17T03:37:45;61.97;;;29.60;;
18738;SDS011;9498;51.862;19.460;2022-10-17T03:40:13;63.10;;;28.03;;
18738;SDS011;9498;51.862;19.460;2022-10-17T03:42:41;62.87;;;28.60;;
18738;SDS011;9498;51.862;19.460;2022-10-17T03:45:09;70.30;;;28.23;;
18738;SDS011;9498;51.862;19.460;2022-10-17T03:47:36;67.03;;;28.53;;
18738;SDS011;9498;51.862;19.460;2022-10-17T03:50:03;62.40;;;28.10;;
18738;SDS011;9498;51.862;19.460;2022-10-17T03:52:31;70.37;;;27.97;;
18738;SDS011;9498;51.862;19.460;2022-10-17T03:54:58;62.33;;;28.50;;
18738;SDS011;9498;51.862;19.460;2022-10-17T03:57:25;59.97;;;28.93;;
18738;SDS011;9498;51.862;19.460;2022-10-17T03:59:54;61.37;;;29.03;;
18738;SDS011;9498;51.862;19.460;2022-10-17T04:02:21;64.83;;;26.87;;
18738;SDS011;9498;51.862;19.460;2022-10-17T04:04:49;58.53;;;27.53;;
18738;SDS011;9498;51.862;19.460;2022-10-17T04:07:16;64.97;;;28.33;;
18738;SDS011;9498;51.862;19.460;2022-10-17T04:09:43;58.63;;;27.13;;
18738;SDS011;9498;51.862;19.460;2022-10-17T04:12:10;58.13;;;26.23;;
18738;SDS011;9498;51.862;19.460;2022-10-17T04:14:37;57.80;;;25.87;;
18738;SDS011;9498;51.862;19.460;2022-10-17T04:17:06;57.90;;;26.67;;
18738;SDS011;9498;51.862;19.460;2022-10-17T04:19:33;63.00;;;26.50;;
18738;SDS011;9498;51.862;19.460;2022-10-17T04:22:00;62.30;;;26.93;;
18738;SDS011;9498;51.862;19.460;2022-10-17T04:24:28;61.03;;;26.97;;
18738;SDS011;9498;51.862;19.460;2022-10-17T04:26:55;64.33;;;27.63;;
18738;SDS011;9498;51.862;19.460;2022-10-17T04:29:22;61.10;;;26.10;;
18738;SDS011;9498;51.862;19.460;2022-10-17T04:31:50;56.30;;;26.47;;
18738;SDS011;9498;51.862;19.460;2022-10-17T04:34:18;57.73;;;26.13;;
18738;SDS011;9498;51.862;19.460;2022-10-17T04:36:46;52.17;;;25.53;;
18738;SDS011;9498;51.862;19.460;2022-10-17T04:39:13;52.97;;;24.47;;
18738;SDS011;9498;51.862;19.460;2022-10-17T04:41:40;57.30;;;25.43;;
18738;SDS011;9498;51.862;19.460;2022-10-17T04:44:08;54.97;;;25.73;;
18738;SDS011;9498;51.862;19.460;2022-10-17T04:46:36;62.07;;;26.97;;
18738;SDS011;9498;51.862;19.460;2022-10-17T04:49:03;60.83;;;27.00;;
18738;SDS011;9498;51.862;19.460;2022-10-17T04:51:31;66.73;;;28.47;;
18738;SDS011;9498;51.862;19.460;2022-10-17T04:53:59;62.10;;;29.37;;
18738;SDS011;9498;51.862;19.460;2022-10-17T04:56:26;68.27;;;28.07;;
18738;SDS011;9498;51.862;19.460;2022-10-17T04:58:53;66.30;;;28.67;;
18738;SDS011;9498;51.862;19.460;2022-10-17T05:01:21;64.23;;;27.80;;
18738;SDS011;9498;51.862;19.460;2022-10-17T05:03:49;60.67;;;27.43;;
18738;SDS011;9498;51.862;19.460;2022-10-17T05:06:17;59.23;;;26.33;;
18738;SDS011;9498;51.862;19.460;2022-10-17T05:08:46;70.60;;;29.40;;
18738;SDS011;9498;51.862;19.460;2022-10-17T05:11:17;57.63;;;26.80;;
18738;SDS011;9498;51.862;19.460;2022-10-17T05:13:45;67.43;;;26.87;;
18738;SDS011;9498;51.862;19.460;2022-10-17T05:16:15;66.37;;;27.73;;
18738;SDS011;9498;51.862;19.460;2022-10-17T05:18:42;59.80;;;27.30;;
18738;SDS011;9498;51.862;19.460;2022-10-17T05:21:09;58.57;;;26.87;;
18738;SDS011;9498;51.862;19.460;2022-10-17T05:23:36;63.10;;;26.63;;
18738;SDS011;9498;51.862;19.460;2022-10-17T05:26:05;58.23;;;26.50;;
18738;SDS011;9498;51.862;19.460;2022-10-17T05:28:32;58.57;;;25.87;;
18738;SDS011;9498;51.862;19.460;2022-10-17T05:31:01;60.53;;;25.80;;
18738;SDS011;9498;51.862;19.460;2022-10-17T05:33:28;60.23;;;25.37;;
18738;SDS011;9498;51.862;19.460;2022-10-17T05:35:55;56.70;;;26.23;;
18738;SDS011;9498;51.862;19.460;2022-10-17T05:38:23;58.13;;;25.13;;
18738;SDS011;9498;51.862;19.460;2022-10-17T05:40:50;56.87;;;25.30;;
18738;SDS011;9498;51.862;19.460;2022-10-17T05:43:18;63.17;;;25.30;;
18738;SDS011;9498;51.862;19.460;2022-10-17T05:45:46;66.73;;;26.60;;
18738;SDS011;9498;51.862;19.460;2022-10-17T05:48:13;52.37;;;24.33;;
18738;SDS011;9498;51.862;19.460;2022-10-17T05:50:40;63.90;;;26.37;;
18738;SDS011;9498;51.862;19.460;2022-10-17T05:53:07;54.83;;;26.07;;
18738;SDS011;9498;51.862;19.460;2022-10-17T05:55:34;61.50;;;26.17;;
18738;SDS011;9498;51.862;19.460;2022-10-17T05:58:02;54.53;;;25.23;;
18738;SDS011;9498;51.862;19.460;2022-10-17T06:00:30;56.60;;;26.20;;
18738;SDS011;9498;51.862;19.460;2022-10-17T06:02:58;58.23;;;25.27;;
18738;SDS011;9498;51.862;19.460;2022-10-17T06:05:26;61.20;;;27.73;;
18738;SDS011;9498;51.862;19.460;2022-10-17T06:07:53;62.67;;;27.67;;
18738;SDS011;9498;51.862;19.460;2022-10-17T06:10:20;55.57;;;25.07;;
18738;SDS011;9498;51.862;19.460;2022-10-17T06:12:47;61.03;;;27.47;;
18738;SDS011;9498;51.862;19.460;2022-10-17T06:15:15;62.97;;;28.20;;
18738;SDS011;9498;51.862;19.460;2022-10-17T06:17:43;63.13;;;28.33;;
18738;SDS011;9498;51.862;19.460;2022-10-17T06:20:10;59.13;;;27.73;;
18738;SDS011;9498;51.862;19.460;2022-10-17T06:22:38;68.50;;;29.87;;
18738;SDS011;9498;51.862;19.460;2022-10-17T06:25:05;65.10;;;30.13;;
18738;SDS011;9498;51.862;19.460;2022-10-17T06:27:32;68.17;;;29.73;;
18738;SDS011;9498;51.862;19.460;2022-10-17T06:30:00;61.37;;;28.57;;
18738;SDS011;9498;51.862;19.460;2022-10-17T06:32:28;65.73;;;29.23;;
18738;SDS011;9498;51.862;19.460;2022-10-17T06:34:56;61.70;;;28.30;;
18738;SDS011;9498;51.862;19.460;2022-10-17T06:37:24;62.93;;;28.07;;
18738;SDS011;9498;51.862;19.460;2022-10-17T06:39:51;66.73;;;28.73;;
18738;SDS011;9498;51.862;19.460;2022-10-17T06:42:18;65.83;;;28.80;;
18738;SDS011;9498;51.862;19.460;2022-10-17T06:44:45;62.63;;;29.20;;
18738;SDS011;9498;51.862;19.460;2022-10-17T06:47:12;62.83;;;29.23;;
18738;SDS011;9498;51.862;19.460;2022-10-17T06:49:40;66.20;;;29.80;;
18738;SDS011;9498;51.862;19.460;2022-10-17T06:52:09;59.43;;;27.50;;
18738;SDS011;9498;51.862;19.460;2022-10-17T06:54:36;60.13;;;28.00;;
18738;SDS011;9498;51.862;19.460;2022-10-17T06:57:03;60.80;;;26.83;;
18738;SDS011;9498;51.862;19.460;2022-10-17T06:59:30;52.90;;;26.97;;
18738;SDS011;9498;51.862;19.460;2022-10-17T07:01:59;53.27;;;26.63;;
18738;SDS011;9498;51.862;19.460;2022-10-17T07:04:26;58.43;;;25.77;;
18738;SDS011;9498;51.862;19.460;2022-10-17T07:06:53;54.93;;;25.27;;
18738;SDS011;9498;51.862;19.460;2022-10-17T07:09:22;58.00;;;26.70;;
18738;SDS011;9498;51.862;19.460;2022-10-17T07:11:50;47.13;;;24.00;;
18738;SDS011;9498;51.862;19.460;2022-10-17T07:14:18;53.00;;;25.23;;
18738;SDS011;9498;51.862;19.460;2022-10-17T07:16:45;54.40;;;23.93;;
18738;SDS011;9498;51.862;19.460;2022-10-17T07:19:12;52.97;;;24.07;;
18738;SDS011;9498;51.862;19.460;2022-10-17T07:21:39;52.77;;;24.07;;
18738;SDS011;9498;51.862;19.460;2022-10-17T07:24:07;46.40;;;22.17;;
18738;SDS011;9498;51.862;19.460;2022-10-17T07:26:35;45.93;;;22.13;;
18738;SDS011;9498;51.862;19.460;2022-10-17T07:29:02;46.70;;;21.60;;
18738;SDS011;9498;51.862;19.460;2022-10-17T07:31:31;43.97;;;21.83;;
18738;SDS011;9498;51.862;19.460;2022-10-17T07:33:59;43.63;;;21.60;;
18738;SDS011;9498;51.862;19.460;2022-10-17T07:36:26;41.83;;;20.50;;
18738;SDS011;9498;51.862;19.460;2022-10-17T07:38:53;46.60;;;20.97;;
18738;SDS011;9498;51.862;19.460;2022-10-17T07:41:20;39.23;;;20.40;;
18738;SDS011;9498;51.862;19.460;2022-10-17T07:43:49;45.73;;;20.53;;
18738;SDS011;9498;51.862;19.460;2022-10-17T07:46:16;44.33;;;20.87;;
18738;SDS011;9498;51.862;19.460;2022-10-17T07:48:44;41.10;;;20.47;;
18738;SDS011;9498;51.862;19.460;2022-10-17T07:51:11;41.40;;;20.50;;
18738;SDS011;9498;51.862;19.460;2022-10-17T07:53:38;41.57;;;21.17;;
18738;SDS011;9498;51.862;19.460;2022-10-17T07:56:07;35.63;;;19.73;;
18738;SDS011;9498;51.862;19.460;2022-10-17T07:58:35;40.40;;;19.77;;
18738;SDS011;9498;51.862;19.460;2022-10-17T08:01:05;40.27;;;20.07;;
18738;SDS011;9498;51.862;19.460;2022-10-17T08:03:34;41.17;;;20.83;;
18738;SDS011;9498;51.862;19.460;2022-10-17T08:06:02;38.40;;;19.73;;
18738;SDS011;9498;51.862;19.460;2022-10-17T08:08:29;42.03;;;20.17;;
18738;SDS011;9498;51.862;19.460;2022-10-17T08:11:00;36.40;;;18.93;;
18738;SDS011;9498;51.862;19.460;2022-10-17T08:13:27;38.47;;;19.40;;
18738;SDS011;9498;51.862;19.460;2022-10-17T08:15:57;39.57;;;20.03;;
18738;SDS011;9498;51.862;19.460;2022-10-17T08:18:26;37.83;;;19.80;;
18738;SDS011;9498;51.862;19.460;2022-10-17T08:20:53;37.93;;;20.20;;
18738;SDS011;9498;51.862;19.460;2022-10-17T08:23:20;38.47;;;18.97;;
18738;SDS011;9498;51.862;19.460;2022-10-17T08:25:47;35.50;;;18.80;;
18738;SDS011;9498;51.862;19.460;2022-10-17T08:28:14;40.07;;;18.73;;
18738;SDS011;9498;51.862;19.460;2022-10-17T08:30:42;37.83;;;19.33;;
18738;SDS011;9498;51.862;19.460;2022-10-17T08:33:09;38.53;;;19.03;;
18738;SDS011;9498;51.862;19.460;2022-10-17T08:35:37;40.17;;;18.67;;
18738;SDS011;9498;51.862;19.460;2022-10-17T08:38:05;35.43;;;18.53;;
18738;SDS011;9498;51.862;19.460;2022-10-17T08:40:32;42.10;;;19.43;;
18738;SDS011;9498;51.862;19.460;2022-10-17T08:43:12;38.07;;;18.47;;
18738;SDS011;9498;51.862;19.460;2022-10-17T08:45:44;35.63;;;18.23;;
18738;SDS011;9498;51.862;19.460;2022-10-17T08:48:12;37.20;;;18.10;;
18738;SDS011;9498;51.862;19.460;2022-10-17T08:50:42;36.03;;;18.67;;
18738;SDS011;9498;51.862;19.460;2022-10-17T08:53:11;37.83;;;19.10;;
18738;SDS011;9498;51.862;19.460;2022-10-17T08:55:41;34.03;;;18.30;;
18738;SDS011;9498;51.862;19.460;2022-10-17T08:58:11;39.67;;;18.67;;
18738;SDS011;9498;51.862;19.460;2022-10-17T09:00:39;36.27;;;17.37;;
18738;SDS011;9498;51.862;19.460;2022-10-17T09:03:13;36.00;;;18.37;;
18738;SDS011;9498;51.862;19.460;2022-10-17T09:05:45;34.50;;;17.57;;
18738;SDS011;9498;51.862;19.460;2022-10-17T09:08:28;33.10;;;17.57;;
18738;SDS011;9498;51.862;19.460;2022-10-17T09:10:59;31.20;;;17.10;;
18738;SDS011;9498;51.862;19.460;2022-10-17T09:13:34;35.45;;;19.67;;
18738;SDS011;9498;51.862;19.460;2022-10-17T09:16:10;34.17;;;18.40;;
18738;SDS011;9498;51.862;19.460;2022-10-17T09:18:41;31.87;;;17.30;;
18738;SDS011;9498;51.862;19.460;2022-10-17T09:21:15;30.20;;;17.27;;
18738;SDS011;9498;51.862;19.460;2022-10-17T09:23:44;33.20;;;18.47;;
18738;SDS011;9498;51.862;19.460;2022-10-17T09:26:13;34.33;;;18.65;;
18738;SDS011;9498;51.862;19.460;2022-10-17T09:28:50;34.40;;;17.97;;
18738;SDS011;9498;51.862;19.460;2022-10-17T09:31:19;34.60;;;18.07;;
18738;SDS011;9498;51.862;19.460;2022-10-17T09:33:48;33.10;;;17.03;;
18738;SDS011;9498;51.862;19.460;2022-10-17T09:36:18;35.78;;;18.33;;
18738;SDS011;9498;51.862;19.460;2022-10-17T09:38:47;32.40;;;17.30;;
18738;SDS011;9498;51.862;19.460;2022-10-17T09:41:17;30.90;;;16.90;;
18738;SDS011;9498;51.862;19.460;2022-10-17T09:43:45;36.40;;;17.27;;
18738;SDS011;9498;51.862;19.460;2022-10-17T09:46:15;29.83;;;17.30;;
18738;SDS011;9498;51.862;19.460;2022-10-17T09:48:44;32.00;;;19.20;;
18738;SDS011;9498;51.862;19.460;2022-10-17T09:51:12;34.53;;;16.87;;
18738;SDS011;9498;51.862;19.460;2022-10-17T09:53:42;33.73;;;16.97;;
18738;SDS011;9498;51.862;19.460;2022-10-17T09:56:12;32.00;;;16.30;;
18738;SDS011;9498;51.862;19.460;2022-10-17T09:58:40;34.13;;;16.73;;
18738;SDS011;9498;51.862;19.460;2022-10-17T10:01:15;33.57;;;17.50;;
18738;SDS011;9498;51.862;19.460;2022-10-17T10:03:43;31.20;;;17.10;;
18738;SDS011;9498;51.862;19.460;2022-10-17T10:06:12;27.53;;;16.07;;
18738;SDS011;9498;51.862;19.460;2022-10-17T10:08:48;30.25;;;17.92;;
18738;SDS011;9498;51.862;19.460;2022-10-17T10:11:16;29.73;;;16.90;;
18738;SDS011;9498;51.862;19.460;2022-10-17T10:13:44;31.67;;;16.23;;
18738;SDS011;9498;51.862;19.460;2022-10-17T10:16:14;28.97;;;16.97;;
18738;SDS011;9498;51.862;19.460;2022-10-17T10:18:41;33.23;;;15.83;;
18738;SDS011;9498;51.862;19.460;2022-10-17T10:21:10;31.53;;;16.70;;
18738;SDS011;9498;51.862;19.460;2022-10-17T10:23:38;27.47;;;15.13;;
18738;SDS011;9498;51.862;19.460;2022-10-17T10:26:13;27.57;;;15.93;;
18738;SDS011;9498;51.862;19.460;2022-10-17T10:28:47;36.00;;;16.47;;
18738;SDS011;9498;51.862;19.460;2022-10-17T10:31:23;29.60;;;15.50;;
18738;SDS011;9498;51.862;19.460;2022-10-17T10:33:51;29.50;;;16.10;;
18738;SDS011;9498;51.862;19.460;2022-10-17T10:36:18;30.50;;;15.73;;
18738;SDS011;9498;51.862;19.460;2022-10-17T10:38:50;28.83;;;15.80;;
18738;SDS011;9498;51.862;19.460;2022-10-17T10:41:19;31.55;;;16.75;;
18738;SDS011;9498;51.862;19.460;2022-10-17T10:43:47;26.93;;;15.30;;
18738;SDS011;9498;51.862;19.460;2022-10-17T10:46:17;27.37;;;15.20;;
18738;SDS011;9498;51.862;19.460;2022-10-17T10:48:52;27.73;;;15.70;;
18738;SDS011;9498;51.862;19.460;2022-10-17T10:51:22;31.17;;;15.68;;
18738;SDS011;9498;51.862;19.460;2022-10-17T10:53:51;29.90;;;15.87;;
18738;SDS011;9498;51.862;19.460;2022-10-17T10:56:23;29.83;;;14.83;;
18738;SDS011;9498;51.862;19.460;2022-10-17T10:58:52;22.57;;;13.50;;
18738;SDS011;9498;51.862;19.460;2022-10-17T11:01:22;26.80;;;14.37;;
18738;SDS011;9498;51.862;19.460;2022-10-17T11:03:53;26.17;;;14.10;;
18738;SDS011;9498;51.862;19.460;2022-10-17T11:06:22;25.30;;;14.47;;
18738;SDS011;9498;51.862;19.460;2022-10-17T11:08:53;25.20;;;14.80;;
18738;SDS011;9498;51.862;19.460;2022-10-17T11:11:25;26.43;;;15.17;;
18738;SDS011;9498;51.862;19.460;2022-10-17T11:13:57;28.20;;;14.57;;
18738;SDS011;9498;51.862;19.460;2022-10-17T11:16:28;28.73;;;15.37;;
18738;SDS011;9498;51.862;19.460;2022-10-17T11:18:58;25.53;;;14.23;;
18738;SDS011;9498;51.862;19.460;2022-10-17T11:21:27;26.30;;;13.87;;
18738;SDS011;9498;51.862;19.460;2022-10-17T11:23:59;29.03;;;13.20;;
18738;SDS011;9498;51.862;19.460;2022-10-17T11:26:30;23.30;;;14.43;;
18738;SDS011;9498;51.862;19.460;2022-10-17T11:28:59;25.07;;;13.47;;
18738;SDS011;9498;51.862;19.460;2022-10-17T11:31:29;25.53;;;14.13;;
18738;SDS011;9498;51.862;19.460;2022-10-17T11:33:58;26.53;;;13.53;;
18738;SDS011;9498;51.862;19.460;2022-10-17T11:36:27;24.00;;;13.13;;
18738;SDS011;9498;51.862;19.460;2022-10-17T11:38:57;26.00;;;13.73;;
18738;SDS011;9498;51.862;19.460;2022-10-17T11:41:26;25.20;;;13.10;;
18738;SDS011;9498;51.862;19.460;2022-10-17T11:43:58;23.70;;;13.30;;
18738;SDS011;9498;51.862;19.460;2022-10-17T11:46:26;22.33;;;13.23;;
18738;SDS011;9498;51.862;19.460;2022-10-17T11:48:56;26.17;;;14.50;;
18738;SDS011;9498;51.862;19.460;2022-10-17T11:51:24;21.67;;;12.60;;
18738;SDS011;9498;51.862;19.460;2022-10-17T11:53:54;28.03;;;13.57;;
18738;SDS011;9498;51.862;19.460;2022-10-17T11:56:24;23.37;;;12.60;;
18738;SDS011;9498;51.862;19.460;2022-10-17T11:58:55;34.20;;;13.27;;
18738;SDS011;9498;51.862;19.460;2022-10-17T12:01:30;23.83;;;13.10;;
18738;SDS011;9498;51.862;19.460;2022-10-17T12:04:01;26.03;;;13.27;;
18738;SDS011;9498;51.862;19.460;2022-10-17T12:06:36;21.47;;;12.67;;
18738;SDS011;9498;51.862;19.460;2022-10-17T12:09:06;23.50;;;12.83;;
18738;SDS011;9498;51.862;19.460;2022-10-17T12:11:39;24.00;;;11.97;;
18738;SDS011;9498;51.862;19.460;2022-10-17T12:17:20;21.60;;;12.07;;
18738;SDS011;9498;51.862;19.460;2022-10-17T12:19:48;22.77;;;12.67;;
18738;SDS011;9498;51.862;19.460;2022-10-17T12:22:19;27.57;;;12.80;;
18738;SDS011;9498;51.862;19.460;2022-10-17T12:24:57;24.50;;;12.70;;
18738;SDS011;9498;51.862;19.460;2022-10-17T12:27:32;24.88;;;13.45;;
18738;SDS011;9498;51.862;19.460;2022-10-17T12:30:02;22.40;;;12.53;;
18738;SDS011;9498;51.862;19.460;2022-10-17T12:32:32;21.87;;;12.40;;
18738;SDS011;9498;51.862;19.460;2022-10-17T12:34:59;22.23;;;12.33;;
18738;SDS011;9498;51.862;19.460;2022-10-17T12:42:54;22.97;;;12.57;;
18738;SDS011;9498;51.862;19.460;2022-10-17T12:48:09;23.73;;;12.07;;
18738;SDS011;9498;51.862;19.460;2022-10-17T12:53:28;23.73;;;12.33;;
18738;SDS011;9498;51.862;19.460;2022-10-17T12:56:01;27.03;;;11.63;;
18738;SDS011;9498;51.862;19.460;2022-10-17T12:58:29;25.47;;;11.43;;
18738;SDS011;9498;51.862;19.460;2022-10-17T13:00:56;19.90;;;12.00;;
18738;SDS011;9498;51.862;19.460;2022-10-17T13:03:27;23.47;;;11.30;;
18738;SDS011;9498;51.862;19.460;2022-10-17T13:05:55;21.77;;;12.37;;
18738;SDS011;9498;51.862;19.460;2022-10-17T13:08:24;21.07;;;12.13;;
18738;SDS011;9498;51.862;19.460;2022-10-17T13:10:54;23.00;;;12.27;;
18738;SDS011;9498;51.862;19.460;2022-10-17T13:13:23;23.20;;;12.53;;
18738;SDS011;9498;51.862;19.460;2022-10-17T13:15:58;22.20;;;11.77;;
18738;SDS011;9498;51.862;19.460;2022-10-17T13:18:27;33.90;;;12.97;;
18738;SDS011;9498;51.862;19.460;2022-10-17T13:20:56;26.47;;;11.43;;
18738;SDS011;9498;51.862;19.460;2022-10-17T13:23:23;24.70;;;12.20;;
18738;SDS011;9498;51.862;19.460;2022-10-17T13:26:04;26.17;;;12.07;;
18738;SDS011;9498;51.862;19.460;2022-10-17T13:28:32;20.13;;;11.77;;
18738;SDS011;9498;51.862;19.460;2022-10-17T13:30:59;24.37;;;11.87;;
18738;SDS011;9498;51.862;19.460;2022-10-17T13:33:30;22.63;;;12.40;;
18738;SDS011;9498;51.862;19.460;2022-10-17T13:35:58;25.97;;;13.10;;
18738;SDS011;9498;51.862;19.460;2022-10-17T13:38:26;20.17;;;11.93;;
18738;SDS011;9498;51.862;19.460;2022-10-17T13:40:56;21.80;;;11.70;;
18738;SDS011;9498;51.862;19.460;2022-10-17T13:43:23;26.37;;;12.03;;
18738;SDS011;9498;51.862;19.460;2022-10-17T13:45:51;21.70;;;12.27;;
18738;SDS011;9498;51.862;19.460;2022-10-17T13:48:20;20.83;;;12.07;;
18738;SDS011;9498;51.862;19.460;2022-10-17T13:50:49;22.90;;;11.87;;
18738;SDS011;9498;51.862;19.460;2022-10-17T13:53:18;22.37;;;12.17;;
18738;SDS011;9498;51.862;19.460;2022-10-17T13:55:50;24.33;;;12.90;;
18738;SDS011;9498;51.862;19.460;2022-10-17T13:58:18;22.37;;;12.70;;
18738;SDS011;9498;51.862;19.460;2022-10-17T14:00:45;19.80;;;11.20;;
18738;SDS011;9498;51.862;19.460;2022-10-17T14:03:14;24.40;;;12.50;;
18738;SDS011;9498;51.862;19.460;2022-10-17T14:06:03;24.10;;;12.90;;
18738;SDS011;9498;51.862;19.460;2022-10-17T14:08:31;23.23;;;12.50;;
18738;SDS011;9498;51.862;19.460;2022-10-17T14:10:59;18.73;;;11.00;;
18738;SDS011;9498;51.862;19.460;2022-10-17T14:13:27;21.83;;;12.30;;
18738;SDS011;9498;51.862;19.460;2022-10-17T14:15:59;21.60;;;11.93;;
18738;SDS011;9498;51.862;19.460;2022-10-17T14:18:28;24.00;;;12.40;;
18738;SDS011;9498;51.862;19.460;2022-10-17T14:20:55;21.03;;;12.00;;
18738;SDS011;9498;51.862;19.460;2022-10-17T14:23:31;22.20;;;11.60;;
18738;SDS011;9498;51.862;19.460;2022-10-17T14:26:06;20.37;;;11.87;;
18738;SDS011;9498;51.862;19.460;2022-10-17T14:28:34;21.43;;;11.33;;
18738;SDS011;9498;51.862;19.460;2022-10-17T14:31:11;23.23;;;12.30;;
18738;SDS011;9498;51.862;19.460;2022-10-17T14:33:41;20.17;;;11.27;;
18738;SDS011;9498;51.862;19.460;2022-10-17T14:36:09;24.07;;;11.77;;
18738;SDS011;9498;51.862;19.460;2022-10-17T14:38:43;20.00;;;11.13;;
18738;SDS011;9498;51.862;19.460;2022-10-17T14:41:12;19.07;;;11.57;;
18738;SDS011;9498;51.862;19.460;2022-10-17T14:43:42;31.37;;;12.50;;
18738;SDS011;9498;51.862;19.460;2022-10-17T14:46:12;21.00;;;11.67;;
18738;SDS011;9498;51.862;19.460;2022-10-17T14:48:40;25.07;;;11.97;;